Calabar Margaret Ekpo International Airport

Current Flights

Departures
Number Departure To Airline
 P47183 11:40 +522  Abuja Air Peace
 APK7182 13:30 +412  Abuja Air Peace
 APK7181 16:50 +212  Lagos Air Peace
 P47183 11:40  Abuja Air Peace
 P47182 13:30  Abuja Air Peace
 APK7182 13:30  Abuja Air Peace
 P47181 16:50  Lagos Air Peace
 APK7181 16:50  Lagos Air Peace
 APK7182 13:30  Abuja Air Peace
 APK7181 16:50  Lagos Air Peace
Arrivals
Number Arrival From Airline
 P47180 13:00 +442  Lagos Air Peace
 P47182 11:00  Abuja Air Peace
 P47180 13:00  Lagos Air Peace
 P47183 16:20  Abuja Air Peace
Info
Name: Calabar Margaret Ekpo International Airport
Identifier:  CBQ/DNCA
Local Time:  20. May 20:22
City
Calabar
  Nigeria

Flights per Day
4 flights
Distance: 509km (316mi)
Punctuality
51% (2 flights per day delayed)
Delay Average: 96 minutes
Current Weather
 31 C (Humidity: 70%)
  10kt (18km/h / 11mph) from 220°
  Broken clouds at 1,100 feet (335 meter)
  9km (6 mi.)
 METAR DNCA 201300Z 22010KT 9999 BKN011 31/25 Q1012

Current Delays

Departures
N/A
Arrivals
N/A

Destinations

Top Destinations
Airport Flights
per week
Seats
per week
  Abuja (ABV) <1 532 0 76
  Lagos (LOS) <1 462 0 66

Airlines & Planes

Top Airlines
Airline Flights
per Day
Seats
per Day
Air Peace 1 143
Top Plane Types
Manufacturer Model Flights Seats
Boeing B737-300 1.5/day 143/day 143